sensor_id;sensor_type;location;lat;lon;timestamp;pressure;altitude;pressure_sealevel;temperature;humidity
33953;BME280;20231;42.710;23.280;2022-11-15T00:01:17;95546.53;;;8.66;64.41
33953;BME280;20231;42.710;23.280;2022-11-15T00:03:43;95540.25;;;8.67;64.00
33953;BME280;20231;42.710;23.280;2022-11-15T00:06:09;95546.56;;;8.71;64.24
33953;BME280;20231;42.710;23.280;2022-11-15T00:08:34;95531.66;;;8.81;62.91
33953;BME280;20231;42.710;23.280;2022-11-15T00:11:01;95543.66;;;9.04;62.06
33953;BME280;20231;42.710;23.280;2022-11-15T00:13:27;95541.25;;;9.02;61.61
33953;BME280;20231;42.710;23.280;2022-11-15T00:15:56;95531.38;;;8.78;61.87
33953;BME280;20231;42.710;23.280;2022-11-15T00:18:22;95527.88;;;8.67;62.18
33953;BME280;20231;42.710;23.280;2022-11-15T00:20:47;95532.63;;;8.70;62.54
33953;BME280;20231;42.710;23.280;2022-11-15T00:23:13;95520.53;;;8.69;61.96
33953;BME280;20231;42.710;23.280;2022-11-15T00:25:38;95518.78;;;8.80;61.02
33953;BME280;20231;42.710;23.280;2022-11-15T00:28:04;95525.25;;;8.67;61.33
33953;BME280;20231;42.710;23.280;2022-11-15T00:30:29;95520.56;;;8.74;62.45
33953;BME280;20231;42.710;23.280;2022-11-15T00:32:55;95523.97;;;8.75;62.67
33953;BME280;20231;42.710;23.280;2022-11-15T00:35:21;95522.16;;;8.75;62.54
33953;BME280;20231;42.710;23.280;2022-11-15T00:37:47;95527.50;;;8.90;62.55
33953;BME280;20231;42.710;23.280;2022-11-15T00:40:13;95513.44;;;8.75;63.36
33953;BME280;20231;42.710;23.280;2022-11-15T00:42:39;95524.50;;;8.77;63.47
33953;BME280;20231;42.710;23.280;2022-11-15T00:45:05;95516.75;;;8.92;62.76
33953;BME280;20231;42.710;23.280;2022-11-15T00:47:30;95532.28;;;8.98;62.89
33953;BME280;20231;42.710;23.280;2022-11-15T00:49:55;95524.81;;;8.80;64.56
33953;BME280;20231;42.710;23.280;2022-11-15T00:52:21;95506.72;;;8.94;63.43
33953;BME280;20231;42.710;23.280;2022-11-15T00:54:46;95521.16;;;8.86;64.22
33953;BME280;20231;42.710;23.280;2022-11-15T00:57:12;95511.72;;;8.90;64.42
33953;BME280;20231;42.710;23.280;2022-11-15T00:59:38;95518.97;;;8.73;64.75
33953;BME280;20231;42.710;23.280;2022-11-15T01:02:04;95503.25;;;8.47;65.17
33953;BME280;20231;42.710;23.280;2022-11-15T01:04:29;95490.31;;;8.41;65.23
33953;BME280;20231;42.710;23.280;2022-11-15T01:06:54;95498.28;;;8.51;65.23
33953;BME280;20231;42.710;23.280;2022-11-15T01:09:20;95493.13;;;8.65;64.92
33953;BME280;20231;42.710;23.280;2022-11-15T01:11:45;95490.84;;;8.74;64.60
33953;BME280;20231;42.710;23.280;2022-11-15T01:14:10;95498.69;;;8.69;64.49
33953;BME280;20231;42.710;23.280;2022-11-15T01:16:36;95501.06;;;8.70;64.06
33953;BME280;20231;42.710;23.280;2022-11-15T01:19:02;95505.56;;;8.75;64.64
33953;BME280;20231;42.710;23.280;2022-11-15T01:21:27;95517.16;;;8.74;64.80
33953;BME280;20231;42.710;23.280;2022-11-15T01:23:56;95514.25;;;8.75;64.82
33953;BME280;20231;42.710;23.280;2022-11-15T01:26:23;95486.22;;;8.54;64.64
33953;BME280;20231;42.710;23.280;2022-11-15T01:28:49;95500.25;;;8.70;64.69
33953;BME280;20231;42.710;23.280;2022-11-15T01:31:17;95498.44;;;8.70;64.39
33953;BME280;20231;42.710;23.280;2022-11-15T01:33:43;95505.91;;;8.83;64.07
33953;BME280;20231;42.710;23.280;2022-11-15T01:36:12;95506.94;;;8.82;64.99
33953;BME280;20231;42.710;23.280;2022-11-15T01:38:38;95513.53;;;8.85;64.49
33953;BME280;20231;42.710;23.280;2022-11-15T01:41:04;95492.41;;;8.75;64.21
33953;BME280;20231;42.710;23.280;2022-11-15T01:43:32;95504.59;;;8.86;64.69
33953;BME280;20231;42.710;23.280;2022-11-15T01:46:04;95495.91;;;8.90;64.56
33953;BME280;20231;42.710;23.280;2022-11-15T01:48:34;95482.88;;;8.64;65.67
33953;BME280;20231;42.710;23.280;2022-11-15T01:51:01;95491.16;;;8.82;65.43
33953;BME280;20231;42.710;23.280;2022-11-15T01:53:29;95499.09;;;8.56;65.62
33953;BME280;20231;42.710;23.280;2022-11-15T01:55:55;95489.81;;;8.44;64.62
33953;BME280;20231;42.710;23.280;2022-11-15T01:58:21;95482.38;;;8.67;64.00
33953;BME280;20231;42.710;23.280;2022-11-15T02:00:47;95484.22;;;8.71;63.80
33953;BME280;20231;42.710;23.280;2022-11-15T02:03:13;95496.31;;;8.67;63.85
33953;BME280;20231;42.710;23.280;2022-11-15T02:05:39;95485.72;;;8.57;63.69
33953;BME280;20231;42.710;23.280;2022-11-15T02:08:06;95496.34;;;8.36;63.72
33953;BME280;20231;42.710;23.280;2022-11-15T02:10:32;95484.66;;;8.22;64.26
33953;BME280;20231;42.710;23.280;2022-11-15T02:12:59;95487.66;;;8.36;64.21
33953;BME280;20231;42.710;23.280;2022-11-15T02:15:33;95489.97;;;8.63;63.86
33953;BME280;20231;42.710;23.280;2022-11-15T02:18:18;95491.59;;;8.69;63.89
33953;BME280;20231;42.710;23.280;2022-11-15T02:32:25;95481.09;;;8.38;63.15
33953;BME280;20231;42.710;23.280;2022-11-15T02:35:01;95488.81;;;8.50;62.64
33953;BME280;20231;42.710;23.280;2022-11-15T02:37:35;95483.88;;;8.58;61.74
33953;BME280;20231;42.710;23.280;2022-11-15T02:40:44;95488.38;;;8.31;62.17
33953;BME280;20231;42.710;23.280;2022-11-15T02:43:13;95482.91;;;8.33;62.02
33953;BME280;20231;42.710;23.280;2022-11-15T02:46:04;95467.28;;;8.21;62.39
33953;BME280;20231;42.710;23.280;2022-11-15T02:48:31;95478.41;;;8.28;61.94
33953;BME280;20231;42.710;23.280;2022-11-15T02:50:58;95475.72;;;8.23;61.49
33953;BME280;20231;42.710;23.280;2022-11-15T02:53:27;95481.72;;;8.19;61.05
33953;BME280;20231;42.710;23.280;2022-11-15T02:55:53;95471.13;;;8.09;60.64
33953;BME280;20231;42.710;23.280;2022-11-15T03:07:13;95499.50;;;8.12;61.04
33953;BME280;20231;42.710;23.280;2022-11-15T03:12:32;95487.47;;;8.16;61.92
33953;BME280;20231;42.710;23.280;2022-11-15T03:15:23;95481.91;;;8.39;61.77
33953;BME280;20231;42.710;23.280;2022-11-15T03:17:59;95475.47;;;8.25;62.30
33953;BME280;20231;42.710;23.280;2022-11-15T03:20:26;95477.03;;;8.21;62.79
33953;BME280;20231;42.710;23.280;2022-11-15T03:22:54;95477.34;;;8.29;62.35
33953;BME280;20231;42.710;23.280;2022-11-15T03:25:22;95478.97;;;8.35;62.00
33953;BME280;20231;42.710;23.280;2022-11-15T03:27:51;95478.41;;;8.28;62.16
33953;BME280;20231;42.710;23.280;2022-11-15T03:30:18;95458.34;;;8.17;62.28
33953;BME280;20231;42.710;23.280;2022-11-15T03:32:48;95476.88;;;8.37;62.34
33953;BME280;20231;42.710;23.280;2022-11-15T03:35:23;95455.59;;;8.39;62.14
33953;BME280;20231;42.710;23.280;2022-11-15T03:41:04;95462.94;;;8.37;62.92
33953;BME280;20231;42.710;23.280;2022-11-15T03:43:40;95463.06;;;8.52;62.78
33953;BME280;20231;42.710;23.280;2022-11-15T03:46:13;95460.75;;;8.60;62.66
33953;BME280;20231;42.710;23.280;2022-11-15T03:48:56;95454.41;;;8.56;62.93
33953;BME280;20231;42.710;23.280;2022-11-15T03:51:24;95453.50;;;8.41;64.49
33953;BME280;20231;42.710;23.280;2022-11-15T03:53:50;95451.22;;;8.49;64.77
33953;BME280;20231;42.710;23.280;2022-11-15T03:56:15;95431.44;;;8.42;64.41
33953;BME280;20231;42.710;23.280;2022-11-15T03:58:40;95442.88;;;8.62;64.19
33953;BME280;20231;42.710;23.280;2022-11-15T04:01:06;95453.00;;;8.85;64.97
33953;BME280;20231;42.710;23.280;2022-11-15T04:03:31;95454.28;;;8.77;66.11
33953;BME280;20231;42.710;23.280;2022-11-15T04:05:57;95449.38;;;8.50;66.79
33953;BME280;20231;42.710;23.280;2022-11-15T04:08:22;95431.66;;;8.35;67.35
33953;BME280;20231;42.710;23.280;2022-11-15T04:10:51;95449.59;;;8.43;67.98
33953;BME280;20231;42.710;23.280;2022-11-15T04:13:16;95441.44;;;8.40;67.87
33953;BME280;20231;42.710;23.280;2022-11-15T04:15:41;95438.44;;;8.31;68.01
33953;BME280;20231;42.710;23.280;2022-11-15T04:18:07;95430.63;;;8.36;67.31
33953;BME280;20231;42.710;23.280;2022-11-15T04:20:32;95427.59;;;8.54;66.48
33953;BME280;20231;42.710;23.280;2022-11-15T04:23:22;95449.06;;;8.82;65.88
33953;BME280;20231;42.710;23.280;2022-11-15T04:26:11;95427.34;;;8.60;66.47
33953;BME280;20231;42.710;23.280;2022-11-15T04:28:38;95444.16;;;8.59;66.77
33953;BME280;20231;42.710;23.280;2022-11-15T04:31:22;95442.06;;;8.56;66.84
33953;BME280;20231;42.710;23.280;2022-11-15T04:33:47;95431.28;;;8.58;66.72
33953;BME280;20231;42.710;23.280;2022-11-15T04:36:13;95438.25;;;8.38;67.69
33953;BME280;20231;42.710;23.280;2022-11-15T04:38:57;95419.25;;;8.31;67.98
33953;BME280;20231;42.710;23.280;2022-11-15T04:41:23;95445.97;;;8.49;67.45
33953;BME280;20231;42.710;23.280;2022-11-15T04:43:48;95440.16;;;8.47;67.27
33953;BME280;20231;42.710;23.280;2022-11-15T04:46:13;95450.22;;;8.60;67.16
33953;BME280;20231;42.710;23.280;2022-11-15T04:48:39;95427.47;;;8.39;67.38
33953;BME280;20231;42.710;23.280;2022-11-15T04:51:04;95448.19;;;8.67;66.82
33953;BME280;20231;42.710;23.280;2022-11-15T04:53:30;95447.56;;;8.55;67.29
33953;BME280;20231;42.710;23.280;2022-11-15T04:55:55;95431.00;;;8.54;67.06
33953;BME280;20231;42.710;23.280;2022-11-15T04:58:20;95444.97;;;8.60;66.89
33953;BME280;20231;42.710;23.280;2022-11-15T05:00:46;95438.59;;;8.51;67.19
33953;BME280;20231;42.710;23.280;2022-11-15T05:03:11;95441.19;;;8.46;67.19
33953;BME280;20231;42.710;23.280;2022-11-15T05:05:55;95443.81;;;8.46;67.00
33953;BME280;20231;42.710;23.280;2022-11-15T05:08:22;95454.22;;;8.31;67.58
33953;BME280;20231;42.710;23.280;2022-11-15T05:10:47;95409.56;;;8.05;67.56
33953;BME280;20231;42.710;23.280;2022-11-15T05:13:13;95415.50;;;7.90;67.86
33953;BME280;20231;42.710;23.280;2022-11-15T05:15:39;95431.53;;;8.20;67.40
33953;BME280;20231;42.710;23.280;2022-11-15T05:18:04;95437.69;;;8.36;68.38
33953;BME280;20231;42.710;23.280;2022-11-15T05:20:30;95439.50;;;8.71;68.77
33953;BME280;20231;42.710;23.280;2022-11-15T05:22:55;95430.50;;;8.57;66.89
33953;BME280;20231;42.710;23.280;2022-11-15T05:25:22;95440.50;;;8.60;66.89
33953;BME280;20231;42.710;23.280;2022-11-15T05:27:47;95446.16;;;8.43;66.86
33953;BME280;20231;42.710;23.280;2022-11-15T05:30:13;95441.03;;;8.26;67.45
33953;BME280;20231;42.710;23.280;2022-11-15T05:32:39;95433.00;;;8.38;66.83
33953;BME280;20231;42.710;23.280;2022-11-15T05:35:06;95441.94;;;8.42;66.88
33953;BME280;20231;42.710;23.280;2022-11-15T05:37:33;95437.94;;;8.34;67.03
33953;BME280;20231;42.710;23.280;2022-11-15T05:39:59;95432.13;;;8.27;66.90
33953;BME280;20231;42.710;23.280;2022-11-15T05:42:25;95431.72;;;8.45;66.47
33953;BME280;20231;42.710;23.280;2022-11-15T05:44:51;95438.41;;;8.26;66.78
33953;BME280;20231;42.710;23.280;2022-11-15T05:47:21;95441.94;;;8.42;66.20
33953;BME280;20231;42.710;23.280;2022-11-15T05:49:48;95440.97;;;8.16;67.37
33953;BME280;20231;42.710;23.280;2022-11-15T05:52:17;95453.25;;;8.11;67.79
33953;BME280;20231;42.710;23.280;2022-11-15T05:54:45;95439.13;;;8.17;67.57
33953;BME280;20231;42.710;23.280;2022-11-15T05:57:11;95442.69;;;8.06;67.88
33953;BME280;20231;42.710;23.280;2022-11-15T05:59:36;95437.81;;;7.88;68.59
33953;BME280;20231;42.710;23.280;2022-11-15T06:02:02;95454.41;;;8.20;67.97
33953;BME280;20231;42.710;23.280;2022-11-15T06:04:28;95456.75;;;8.16;67.96
33953;BME280;20231;42.710;23.280;2022-11-15T06:06:53;95462.94;;;8.05;68.26
33953;BME280;20231;42.710;23.280;2022-11-15T06:09:19;95457.38;;;8.02;68.57
33953;BME280;20231;42.710;23.280;2022-11-15T06:11:44;95447.41;;;8.04;68.75
33953;BME280;20231;42.710;23.280;2022-11-15T06:14:09;95452.97;;;8.12;68.37
33953;BME280;20231;42.710;23.280;2022-11-15T06:16:35;95444.09;;;7.87;69.42
33953;BME280;20231;42.710;23.280;2022-11-15T06:19:00;95463.09;;;7.94;70.03
33953;BME280;20231;42.710;23.280;2022-11-15T06:21:26;95449.22;;;7.98;70.05
33953;BME280;20231;42.710;23.280;2022-11-15T06:23:53;95450.56;;;8.06;69.63
33953;BME280;20231;42.710;23.280;2022-11-15T06:26:18;95459.63;;;8.15;69.90
33953;BME280;20231;42.710;23.280;2022-11-15T06:28:44;95460.44;;;8.20;69.42
33953;BME280;20231;42.710;23.280;2022-11-15T06:31:10;95457.53;;;8.17;69.52
33953;BME280;20231;42.710;23.280;2022-11-15T06:33:39;95444.69;;;8.20;69.51
33953;BME280;20231;42.710;23.280;2022-11-15T06:36:07;95448.25;;;8.41;69.39
33953;BME280;20231;42.710;23.280;2022-11-15T06:38:33;95430.75;;;8.20;69.21
33953;BME280;20231;42.710;23.280;2022-11-15T06:41:02;95462.50;;;8.45;69.22
33953;BME280;20231;42.710;23.280;2022-11-15T06:43:28;95451.13;;;8.39;69.13
33953;BME280;20231;42.710;23.280;2022-11-15T06:45:53;95452.13;;;8.33;69.46
33953;BME280;20231;42.710;23.280;2022-11-15T06:48:19;95434.97;;;8.21;69.76
33953;BME280;20231;42.710;23.280;2022-11-15T06:50:53;95442.19;;;8.40;69.23
33953;BME280;20231;42.710;23.280;2022-11-15T06:53:19;95439.44;;;8.61;68.84
33953;BME280;20231;42.710;23.280;2022-11-15T06:55:44;95449.50;;;8.69;68.67
33953;BME280;20231;42.710;23.280;2022-11-15T06:58:10;95435.25;;;8.65;68.54
33953;BME280;20231;42.710;23.280;2022-11-15T07:00:35;95442.22;;;8.81;68.50
33953;BME280;20231;42.710;23.280;2022-11-15T07:03:01;95451.44;;;8.84;68.76
33953;BME280;20231;42.710;23.280;2022-11-15T07:05:27;95436.94;;;8.76;68.76
33953;BME280;20231;42.710;23.280;2022-11-15T07:07:54;95438.91;;;8.59;69.55
33953;BME280;20231;42.710;23.280;2022-11-15T07:10:20;95437.16;;;8.75;69.08
33953;BME280;20231;42.710;23.280;2022-11-15T07:12:48;95428.81;;;8.88;68.54
33953;BME280;20231;42.710;23.280;2022-11-15T07:15:15;95441.78;;;9.04;68.46
33953;BME280;20231;42.710;23.280;2022-11-15T07:17:40;95430.22;;;9.00;68.32
33953;BME280;20231;42.710;23.280;2022-11-15T07:20:06;95435.75;;;9.04;67.94
33953;BME280;20231;42.710;23.280;2022-11-15T07:22:32;95448.72;;;9.20;72.55
33953;BME280;20231;42.710;23.280;2022-11-15T07:24:57;95432.34;;;9.08;68.67
33953;BME280;20231;42.710;23.280;2022-11-15T07:27:22;95444.59;;;9.49;77.96
33953;BME280;20231;42.710;23.280;2022-11-15T07:29:48;95417.66;;;9.22;68.47
33953;BME280;20231;42.710;23.280;2022-11-15T07:32:13;95439.53;;;9.27;68.09
33953;BME280;20231;42.710;23.280;2022-11-15T07:34:39;95433.44;;;9.22;67.79
33953;BME280;20231;42.710;23.280;2022-11-15T07:37:04;95444.25;;;9.25;68.16
33953;BME280;20231;42.710;23.280;2022-11-15T07:39:29;95442.16;;;9.27;67.96
33953;BME280;20231;42.710;23.280;2022-11-15T07:41:55;95441.34;;;9.22;67.65
33953;BME280;20231;42.710;23.280;2022-11-15T07:44:40;95438.72;;;9.22;67.93
33953;BME280;20231;42.710;23.280;2022-11-15T07:47:06;95430.53;;;9.19;67.85
33953;BME280;20231;42.710;23.280;2022-11-15T07:49:31;95434.75;;;9.20;68.00
33953;BME280;20231;42.710;23.280;2022-11-15T07:51:56;95422.34;;;9.15;67.86
33953;BME280;20231;42.710;23.280;2022-11-15T07:54:22;95439.75;;;9.21;68.28
33953;BME280;20231;42.710;23.280;2022-11-15T07:56:48;95436.59;;;9.14;68.34
33953;BME280;20231;42.710;23.280;2022-11-15T07:59:13;95442.19;;;9.32;67.93
33953;BME280;20231;42.710;23.280;2022-11-15T08:01:38;95436.91;;;9.32;68.05
33953;BME280;20231;42.710;23.280;2022-11-15T08:04:04;95442.91;;;9.13;68.03
33953;BME280;20231;42.710;23.280;2022-11-15T08:06:29;95432.31;;;9.03;68.51
33953;BME280;20231;42.710;23.280;2022-11-15T08:08:55;95427.22;;;8.87;69.08
33953;BME280;20231;42.710;23.280;2022-11-15T08:11:20;95440.25;;;9.13;68.70
33953;BME280;20231;42.710;23.280;2022-11-15T08:13:46;95426.81;;;9.10;68.75
33953;BME280;20231;42.710;23.280;2022-11-15T08:16:11;95423.16;;;9.16;68.60
33953;BME280;20231;42.710;23.280;2022-11-15T08:18:37;95426.00;;;9.04;68.93
33953;BME280;20231;42.710;23.280;2022-11-15T08:21:03;95434.16;;;8.98;69.65
33953;BME280;20231;42.710;23.280;2022-11-15T08:23:29;95430.28;;;9.20;69.01
33953;BME280;20231;42.710;23.280;2022-11-15T08:26:02;95427.66;;;9.20;68.92
33953;BME280;20231;42.710;23.280;2022-11-15T08:28:29;95426.34;;;9.23;68.76
33953;BME280;20231;42.710;23.280;2022-11-15T08:30:54;95429.22;;;9.21;68.67
33953;BME280;20231;42.710;23.280;2022-11-15T08:33:20;95410.28;;;9.14;68.36
33953;BME280;20231;42.710;23.280;2022-11-15T08:35:46;95417.41;;;9.23;68.61
33953;BME280;20231;42.710;23.280;2022-11-15T08:38:11;95419.00;;;9.29;68.13
33953;BME280;20231;42.710;23.280;2022-11-15T08:40:37;95417.41;;;9.23;68.65
33953;BME280;20231;42.710;23.280;2022-11-15T08:43:03;95405.28;;;9.23;68.67
33953;BME280;20231;42.710;23.280;2022-11-15T08:45:29;95418.47;;;9.27;68.80
33953;BME280;20231;42.710;23.280;2022-11-15T08:47:55;95402.13;;;9.21;68.62
33953;BME280;20231;42.710;23.280;2022-11-15T08:50:20;95395.28;;;9.24;68.54
33953;BME280;20231;42.710;23.280;2022-11-15T08:52:46;95412.22;;;9.48;68.40
33953;BME280;20231;42.710;23.280;2022-11-15T08:55:13;95401.09;;;9.31;68.18
33953;BME280;20231;42.710;23.280;2022-11-15T08:57:38;95395.06;;;9.36;68.14
33953;BME280;20231;42.710;23.280;2022-11-15T09:00:04;95406.97;;;9.48;68.19
33953;BME280;20231;42.710;23.280;2022-11-15T09:02:30;95398.25;;;9.43;68.20
33953;BME280;20231;42.710;23.280;2022-11-15T09:04:55;95389.81;;;9.46;68.03
33953;BME280;20231;42.710;23.280;2022-11-15T09:07:20;95382.72;;;9.41;68.08
33953;BME280;20231;42.710;23.280;2022-11-15T09:09:46;95389.03;;;9.45;67.96
33953;BME280;20231;42.710;23.280;2022-11-15T09:12:11;95385.34;;;9.51;67.99
33953;BME280;20231;42.710;23.280;2022-11-15T09:14:37;95382.72;;;9.61;67.76
33953;BME280;20231;42.710;23.280;2022-11-15T09:17:02;95384.31;;;9.62;67.88
33953;BME280;20231;42.710;23.280;2022-11-15T09:19:28;95370.34;;;9.57;68.04
33953;BME280;20231;42.710;23.280;2022-11-15T09:21:54;95378.25;;;9.67;67.65
33953;BME280;20231;42.710;23.280;2022-11-15T09:24:20;95368.53;;;9.67;67.43
33953;BME280;20231;42.710;23.280;2022-11-15T09:26:46;95367.44;;;9.68;67.45
33953;BME280;20231;42.710;23.280;2022-11-15T09:29:11;95367.72;;;9.77;67.74
33953;BME280;20231;42.710;23.280;2022-11-15T09:31:36;95355.88;;;9.79;67.61
33953;BME280;20231;42.710;23.280;2022-11-15T09:34:02;95353.00;;;9.76;67.68
33953;BME280;20231;42.710;23.280;2022-11-15T09:36:27;95351.91;;;9.77;67.50
33953;BME280;20231;42.710;23.280;2022-11-15T09:38:53;95352.44;;;9.69;67.88
33953;BME280;20231;42.710;23.280;2022-11-15T09:47:34;95350.06;;;9.87;67.55
33953;BME280;20231;42.710;23.280;2022-11-15T09:50:09;95335.84;;;9.78;67.68
33953;BME280;20231;42.710;23.280;2022-11-15T09:52:36;95340.84;;;9.80;67.43
33953;BME280;20231;42.710;23.280;2022-11-15T09:55:05;95339.03;;;9.85;67.32
33953;BME280;20231;42.710;23.280;2022-11-15T09:58:04;95335.59;;;9.85;67.51
33953;BME280;20231;42.710;23.280;2022-11-15T10:00:43;95317.94;;;9.75;67.09
33953;BME280;20231;42.710;23.280;2022-11-15T10:03:15;95311.59;;;9.41;68.44
33953;BME280;20231;42.710;23.280;2022-11-15T10:05:44;95322.66;;;9.43;68.98
33953;BME280;20231;42.710;23.280;2022-11-15T10:08:13;95312.88;;;9.34;69.22
33953;BME280;20231;42.710;23.280;2022-11-15T10:10:47;95308.16;;;9.41;69.36
33953;BME280;20231;42.710;23.280;2022-11-15T10:13:25;95305.03;;;9.44;69.63
33953;BME280;20231;42.710;23.280;2022-11-15T10:15:53;95293.44;;;9.55;69.58
33953;BME280;20231;42.710;23.280;2022-11-15T10:18:49;95304.75;;;9.85;69.78
33953;BME280;20231;42.710;23.280;2022-11-15T10:21:21;95296.31;;;10.13;68.92
33953;BME280;20231;42.710;23.280;2022-11-15T10:23:48;95290.97;;;11.01;85.36
33953;BME280;20231;42.710;23.280;2022-11-15T10:26:16;95298.38;;;11.52;81.74
33953;BME280;20231;42.710;23.280;2022-11-15T10:28:42;95297.97;;;12.02;81.93
33953;BME280;20231;42.710;23.280;2022-11-15T10:31:28;95291.47;;;11.89;71.79
33953;BME280;20231;42.710;23.280;2022-11-15T10:34:12;95274.97;;;11.69;66.27
33953;BME280;20231;42.710;23.280;2022-11-15T10:36:45;95253.31;;;11.67;64.17
33953;BME280;20231;42.710;23.280;2022-11-15T10:39:12;95269.22;;;11.62;63.42
33953;BME280;20231;42.710;23.280;2022-11-15T10:41:41;95262.03;;;11.29;63.76
33953;BME280;20231;42.710;23.280;2022-11-15T10:46:33;95236.63;;;10.95;64.82
33953;BME280;20231;42.710;23.280;2022-11-15T10:49:23;95253.41;;;11.19;64.84
33953;BME280;20231;42.710;23.280;2022-11-15T10:52:15;95236.91;;;11.37;64.26
33953;BME280;20231;42.710;23.280;2022-11-15T10:54:45;95233.63;;;11.49;63.78
33953;BME280;20231;42.710;23.280;2022-11-15T10:57:20;95240.72;;;11.59;63.50
33953;BME280;20231;42.710;23.280;2022-11-15T10:59:49;95230.53;;;11.76;63.09
33953;BME280;20231;42.710;23.280;2022-11-15T11:02:38;95226.81;;;11.77;62.85
33953;BME280;20231;42.710;23.280;2022-11-15T11:05:29;95221.06;;;11.70;62.42
33953;BME280;20231;42.710;23.280;2022-11-15T11:08:04;95224.25;;;11.95;62.50
33953;BME280;20231;42.710;23.280;2022-11-15T11:10:34;95212.47;;;12.06;61.98
33953;BME280;20231;42.710;23.280;2022-11-15T11:13:39;95222.63;;;11.99;61.02
33953;BME280;20231;42.710;23.280;2022-11-15T11:21:34;95206.03;;;12.17;61.15
33953;BME280;20231;42.710;23.280;2022-11-15T11:30:01;95183.22;;;12.44;60.19
33953;BME280;20231;42.710;23.280;2022-11-15T11:32:32;95189.28;;;12.45;60.32
33953;BME280;20231;42.710;23.280;2022-11-15T11:35:17;95166.75;;;12.29;60.12
33953;BME280;20231;42.710;23.280;2022-11-15T11:40:36;95165.16;;;12.28;59.97
33953;BME280;20231;42.710;23.280;2022-11-15T11:46:18;95152.03;;;12.41;60.82
33953;BME280;20231;42.710;23.280;2022-11-15T11:49:07;95143.47;;;12.49;60.24
33953;BME280;20231;42.710;23.280;2022-11-15T11:51:43;95143.59;;;12.39;59.53
33953;BME280;20231;42.710;23.280;2022-11-15T11:56:45;95129.09;;;12.37;60.27
33953;BME280;20231;42.710;23.280;2022-11-15T12:02:12;95123.66;;;12.47;60.26
33953;BME280;20231;42.710;23.280;2022-11-15T12:04:43;95132.00;;;12.72;59.89
33953;BME280;20231;42.710;23.280;2022-11-15T12:07:30;95115.16;;;12.86;59.30
33953;BME280;20231;42.710;23.280;2022-11-15T12:12:47;95103.44;;;12.92;59.01
33953;BME280;20231;42.710;23.280;2022-11-15T12:15:39;95102.00;;;13.13;58.58
33953;BME280;20231;42.710;23.280;2022-11-15T12:18:09;95097.63;;;13.22;57.69
33953;BME280;20231;42.710;23.280;2022-11-15T12:20:42;95100.78;;;12.92;58.37
33953;BME280;20231;42.710;23.280;2022-11-15T12:23:22;95092.16;;;13.00;58.19
33953;BME280;20231;42.710;23.280;2022-11-15T12:28:20;95078.56;;;13.07;58.08
33953;BME280;20231;42.710;23.280;2022-11-15T12:31:02;95079.44;;;13.16;57.86
33953;BME280;20231;42.710;23.280;2022-11-15T12:33:36;95084.97;;;13.19;57.59
33953;BME280;20231;42.710;23.280;2022-11-15T12:36:11;95072.22;;;13.21;57.71
33953;BME280;20231;42.710;23.280;2022-11-15T12:41:19;95071.03;;;13.27;58.01
33953;BME280;20231;42.710;23.280;2022-11-15T12:43:47;95069.88;;;13.33;57.79
33953;BME280;20231;42.710;23.280;2022-11-15T12:46:21;95065.50;;;13.42;56.93
33953;BME280;20231;42.710;23.280;2022-11-15T12:48:53;95068.31;;;13.32;57.39
33953;BME280;20231;42.710;23.280;2022-11-15T12:51:20;95060.44;;;13.27;57.28
33953;BME280;20231;42.710;23.280;2022-11-15T12:53:46;95063.13;;;13.41;57.29
33953;BME280;20231;42.710;23.280;2022-11-15T12:58:57;95060.69;;;13.57;56.37
33953;BME280;20231;42.710;23.280;2022-11-15T13:04:26;95055.16;;;13.27;57.47
33953;BME280;20231;42.710;23.280;2022-11-15T13:07:03;95051.63;;;13.32;57.38
33953;BME280;20231;42.710;23.280;2022-11-15T13:14:53;95037.34;;;13.14;58.31
33953;BME280;20231;42.710;23.280;2022-11-15T13:19:45;95028.47;;;13.37;58.17
33953;BME280;20231;42.710;23.280;2022-11-15T13:22:11;95030.22;;;13.28;57.70
33953;BME280;20231;42.710;23.280;2022-11-15T13:24:56;95033.03;;;13.18;58.21
33953;BME280;20231;42.710;23.280;2022-11-15T13:27:21;95030.00;;;13.11;58.46
33953;BME280;20231;42.710;23.280;2022-11-15T13:29:47;95020.22;;;12.93;58.53
33953;BME280;20231;42.710;23.280;2022-11-15T13:32:14;95018.19;;;12.90;58.94
33953;BME280;20231;42.710;23.280;2022-11-15T13:34:44;95018.69;;;12.92;58.92
33953;BME280;20231;42.710;23.280;2022-11-15T13:37:32;95026.81;;;12.96;58.96
33953;BME280;20231;42.710;23.280;2022-11-15T13:42:45;95020.38;;;12.83;59.49
33953;BME280;20231;42.710;23.280;2022-11-15T13:45:14;95025.63;;;12.88;59.40
33953;BME280;20231;42.710;23.280;2022-11-15T13:47:40;95025.25;;;12.95;59.03
33953;BME280;20231;42.710;23.280;2022-11-15T13:50:05;95014.75;;;12.72;59.63
33953;BME280;20231;42.710;23.280;2022-11-15T13:52:35;95012.22;;;12.80;59.58
33953;BME280;20231;42.710;23.280;2022-11-15T13:55:31;95018.50;;;12.84;59.63
33953;BME280;20231;42.710;23.280;2022-11-15T13:58:02;95001.06;;;12.83;59.47
33953;BME280;20231;42.710;23.280;2022-11-15T14:00:42;95025.78;;;12.60;60.24
33953;BME280;20231;42.710;23.280;2022-11-15T14:05:43;94997.13;;;12.30;60.71
33953;BME280;20231;42.710;23.280;2022-11-15T14:10:43;95022.50;;;12.50;60.62
33953;BME280;20231;42.710;23.280;2022-11-15T14:13:29;95017.19;;;12.50;60.88
33953;BME280;20231;42.710;23.280;2022-11-15T14:16:13;95007.78;;;12.44;61.10
33953;BME280;20231;42.710;23.280;2022-11-15T14:21:07;94997.47;;;12.61;60.90
33953;BME280;20231;42.710;23.280;2022-11-15T14:23:33;94995.09;;;12.59;60.17
33953;BME280;20231;42.710;23.280;2022-11-15T14:25:59;95014.94;;;12.62;60.25
33953;BME280;20231;42.710;23.280;2022-11-15T14:30:52;94999.06;;;12.43;60.71
33953;BME280;20231;42.710;23.280;2022-11-15T14:33:34;95012.25;;;12.30;61.08
33953;BME280;20231;42.710;23.280;2022-11-15T14:36:11;94991.66;;;12.09;61.58
33953;BME280;20231;42.710;23.280;2022-11-15T14:38:38;95010.16;;;12.27;61.61
33953;BME280;20231;42.710;23.280;2022-11-15T14:41:03;95013.31;;;12.29;61.46